sensor_id;sensor_type;location;lat;lon;timestamp;temperature;humidity
20174;DHT22;10246;50.620;7.232;2022-07-23T00:01:36;20.90;1.00
20174;DHT22;10246;50.620;7.232;2022-07-23T00:04:04;20.80;1.00
20174;DHT22;10246;50.620;7.232;2022-07-23T00:06:30;20.80;1.00
20174;DHT22;10246;50.620;7.232;2022-07-23T00:08:57;20.70;1.00
20174;DHT22;10246;50.620;7.232;2022-07-23T00:11:25;20.60;1.00
20174;DHT22;10246;50.620;7.232;2022-07-23T00:13:52;20.60;1.00
20174;DHT22;10246;50.620;7.232;2022-07-23T00:16:20;20.70;1.00
20174;DHT22;10246;50.620;7.232;2022-07-23T00:18:47;20.70;1.00
20174;DHT22;10246;50.620;7.232;2022-07-23T00:21:13;20.70;1.00
20174;DHT22;10246;50.620;7.232;2022-07-23T00:23:40;20.80;1.00
20174;DHT22;10246;50.620;7.232;2022-07-23T00:26:07;20.70;1.00
20174;DHT22;10246;50.620;7.232;2022-07-23T00:28:35;20.80;1.00
20174;DHT22;10246;50.620;7.232;2022-07-23T00:31:02;20.70;1.00
20174;DHT22;10246;50.620;7.232;2022-07-23T00:33:29;20.70;1.00
20174;DHT22;10246;50.620;7.232;2022-07-23T00:35:56;20.70;1.00
20174;DHT22;10246;50.620;7.232;2022-07-23T00:38:23;20.70;1.00
20174;DHT22;10246;50.620;7.232;2022-07-23T00:40:49;20.60;1.00
20174;DHT22;10246;50.620;7.232;2022-07-23T00:43:16;20.70;1.00
20174;DHT22;10246;50.620;7.232;2022-07-23T00:45:44;20.80;1.00
20174;DHT22;10246;50.620;7.232;2022-07-23T00:48:11;20.80;1.00
20174;DHT22;10246;50.620;7.232;2022-07-23T00:50:38;20.70;1.00
20174;DHT22;10246;50.620;7.232;2022-07-23T00:53:05;20.80;1.00
20174;DHT22;10246;50.620;7.232;2022-07-23T00:55:34;20.70;1.00
20174;DHT22;10246;50.620;7.232;2022-07-23T00:58:01;20.70;1.00
20174;DHT22;10246;50.620;7.232;2022-07-23T01:00:29;20.70;1.00
20174;DHT22;10246;50.620;7.232;2022-07-23T01:02:57;20.80;1.00
20174;DHT22;10246;50.620;7.232;2022-07-23T01:05:23;20.60;1.00
20174;DHT22;10246;50.620;7.232;2022-07-23T01:07:51;20.60;1.00
20174;DHT22;10246;50.620;7.232;2022-07-23T01:10:18;20.60;1.00
20174;DHT22;10246;50.620;7.232;2022-07-23T01:12:57;20.70;1.00
20174;DHT22;10246;50.620;7.232;2022-07-23T01:15:24;20.70;1.00
20174;DHT22;10246;50.620;7.232;2022-07-23T01:17:51;20.60;1.00
20174;DHT22;10246;50.620;7.232;2022-07-23T01:20:20;20.50;1.00
20174;DHT22;10246;50.620;7.232;2022-07-23T01:22:48;20.50;1.00
20174;DHT22;10246;50.620;7.232;2022-07-23T01:25:15;20.50;1.00
20174;DHT22;10246;50.620;7.232;2022-07-23T01:27:42;20.50;1.00
20174;DHT22;10246;50.620;7.232;2022-07-23T01:30:09;20.60;1.00
20174;DHT22;10246;50.620;7.232;2022-07-23T01:32:36;20.60;1.00
20174;DHT22;10246;50.620;7.232;2022-07-23T01:35:04;20.60;1.00
20174;DHT22;10246;50.620;7.232;2022-07-23T01:37:31;20.60;1.00
20174;DHT22;10246;50.620;7.232;2022-07-23T01:39:59;20.50;1.00
20174;DHT22;10246;50.620;7.232;2022-07-23T01:42:26;20.60;1.00
20174;DHT22;10246;50.620;7.232;2022-07-23T01:44:53;20.50;1.00
20174;DHT22;10246;50.620;7.232;2022-07-23T01:47:20;20.50;1.00
20174;DHT22;10246;50.620;7.232;2022-07-23T01:49:46;20.40;1.00
20174;DHT22;10246;50.620;7.232;2022-07-23T01:52:13;20.30;1.00
20174;DHT22;10246;50.620;7.232;2022-07-23T01:54:40;20.40;1.00
20174;DHT22;10246;50.620;7.232;2022-07-23T01:57:08;20.30;1.00
20174;DHT22;10246;50.620;7.232;2022-07-23T01:59:35;20.30;1.00
20174;DHT22;10246;50.620;7.232;2022-07-23T02:02:02;20.30;1.00
20174;DHT22;10246;50.620;7.232;2022-07-23T02:04:31;20.40;1.00
20174;DHT22;10246;50.620;7.232;2022-07-23T02:07:00;20.30;1.00
20174;DHT22;10246;50.620;7.232;2022-07-23T02:09:27;20.20;1.00
20174;DHT22;10246;50.620;7.232;2022-07-23T02:11:54;20.10;1.00
20174;DHT22;10246;50.620;7.232;2022-07-23T02:14:22;20.20;1.00
20174;DHT22;10246;50.620;7.232;2022-07-23T02:16:49;20.20;1.00
20174;DHT22;10246;50.620;7.232;2022-07-23T02:19:16;20.20;1.00
20174;DHT22;10246;50.620;7.232;2022-07-23T02:21:43;20.20;1.00
20174;DHT22;10246;50.620;7.232;2022-07-23T02:24:09;20.10;1.00
20174;DHT22;10246;50.620;7.232;2022-07-23T02:26:36;20.20;1.00
20174;DHT22;10246;50.620;7.232;2022-07-23T02:29:04;20.00;1.00
20174;DHT22;10246;50.620;7.232;2022-07-23T02:31:32;20.00;1.00
20174;DHT22;10246;50.620;7.232;2022-07-23T02:34:00;20.10;1.00
20174;DHT22;10246;50.620;7.232;2022-07-23T02:36:27;20.10;1.00
20174;DHT22;10246;50.620;7.232;2022-07-23T02:38:54;20.00;1.00
20174;DHT22;10246;50.620;7.232;2022-07-23T02:41:20;19.90;1.00
20174;DHT22;10246;50.620;7.232;2022-07-23T02:43:47;19.90;1.00
20174;DHT22;10246;50.620;7.232;2022-07-23T02:46:14;19.90;1.00
20174;DHT22;10246;50.620;7.232;2022-07-23T02:48:42;19.90;1.00
20174;DHT22;10246;50.620;7.232;2022-07-23T02:51:09;19.90;1.00
20174;DHT22;10246;50.620;7.232;2022-07-23T02:53:35;19.80;1.00
20174;DHT22;10246;50.620;7.232;2022-07-23T02:56:03;19.80;1.00
20174;DHT22;10246;50.620;7.232;2022-07-23T02:58:29;19.90;1.00
20174;DHT22;10246;50.620;7.232;2022-07-23T03:00:56;19.80;1.00
20174;DHT22;10246;50.620;7.232;2022-07-23T03:03:23;19.80;1.00
20174;DHT22;10246;50.620;7.232;2022-07-23T03:05:51;19.80;1.00
20174;DHT22;10246;50.620;7.232;2022-07-23T03:08:18;19.80;1.00
20174;DHT22;10246;50.620;7.232;2022-07-23T03:10:44;19.80;1.00
20174;DHT22;10246;50.620;7.232;2022-07-23T03:13:11;19.80;1.00
20174;DHT22;10246;50.620;7.232;2022-07-23T03:15:38;19.70;1.00
20174;DHT22;10246;50.620;7.232;2022-07-23T03:18:05;19.70;1.00
20174;DHT22;10246;50.620;7.232;2022-07-23T03:20:31;19.70;1.00
20174;DHT22;10246;50.620;7.232;2022-07-23T03:23:00;19.70;1.00
20174;DHT22;10246;50.620;7.232;2022-07-23T03:25:27;19.70;1.00
20174;DHT22;10246;50.620;7.232;2022-07-23T03:27:53;19.70;1.00
20174;DHT22;10246;50.620;7.232;2022-07-23T03:30:20;19.70;1.00
20174;DHT22;10246;50.620;7.232;2022-07-23T03:32:47;19.60;1.00
20174;DHT22;10246;50.620;7.232;2022-07-23T03:35:14;19.50;1.00
20174;DHT22;10246;50.620;7.232;2022-07-23T03:37:41;19.40;1.00
20174;DHT22;10246;50.620;7.232;2022-07-23T03:40:10;19.20;1.00
20174;DHT22;10246;50.620;7.232;2022-07-23T03:42:37;19.20;1.00
20174;DHT22;10246;50.620;7.232;2022-07-23T03:45:07;19.20;1.00
20174;DHT22;10246;50.620;7.232;2022-07-23T03:47:33;19.20;1.00
20174;DHT22;10246;50.620;7.232;2022-07-23T03:50:00;19.20;1.00
20174;DHT22;10246;50.620;7.232;2022-07-23T03:52:27;19.30;1.00
20174;DHT22;10246;50.620;7.232;2022-07-23T03:54:54;19.30;1.00
20174;DHT22;10246;50.620;7.232;2022-07-23T03:57:22;19.20;1.00
20174;DHT22;10246;50.620;7.232;2022-07-23T03:59:49;19.10;1.00
20174;DHT22;10246;50.620;7.232;2022-07-23T04:02:16;19.10;1.00
20174;DHT22;10246;50.620;7.232;2022-07-23T04:04:42;19.10;1.00
20174;DHT22;10246;50.620;7.232;2022-07-23T04:07:09;19.00;1.00
20174;DHT22;10246;50.620;7.232;2022-07-23T04:09:36;19.10;1.00
20174;DHT22;10246;50.620;7.232;2022-07-23T04:12:03;19.10;1.00
20174;DHT22;10246;50.620;7.232;2022-07-23T04:14:31;19.10;1.00
20174;DHT22;10246;50.620;7.232;2022-07-23T04:16:58;19.00;1.00
20174;DHT22;10246;50.620;7.232;2022-07-23T04:19:25;19.00;1.00
20174;DHT22;10246;50.620;7.232;2022-07-23T04:21:52;19.00;1.00
20174;DHT22;10246;50.620;7.232;2022-07-23T04:24:19;19.10;1.00
20174;DHT22;10246;50.620;7.232;2022-07-23T04:26:46;19.10;1.00
20174;DHT22;10246;50.620;7.232;2022-07-23T04:29:12;19.00;1.00
20174;DHT22;10246;50.620;7.232;2022-07-23T04:31:41;19.00;1.00
20174;DHT22;10246;50.620;7.232;2022-07-23T04:34:07;19.00;1.00
20174;DHT22;10246;50.620;7.232;2022-07-23T04:36:34;19.10;1.00
20174;DHT22;10246;50.620;7.232;2022-07-23T04:39:01;19.10;1.10
20174;DHT22;10246;50.620;7.232;2022-07-23T04:41:27;19.10;1.00
20174;DHT22;10246;50.620;7.232;2022-07-23T04:43:54;19.10;1.00
20174;DHT22;10246;50.620;7.232;2022-07-23T04:46:21;19.10;1.00
20174;DHT22;10246;50.620;7.232;2022-07-23T04:48:49;19.20;1.00
20174;DHT22;10246;50.620;7.232;2022-07-23T04:51:17;19.20;1.00
20174;DHT22;10246;50.620;7.232;2022-07-23T04:53:43;19.20;1.00
20174;DHT22;10246;50.620;7.232;2022-07-23T04:56:10;19.20;1.00
20174;DHT22;10246;50.620;7.232;2022-07-23T04:58:37;19.20;1.00
20174;DHT22;10246;50.620;7.232;2022-07-23T05:01:04;19.30;1.00
20174;DHT22;10246;50.620;7.232;2022-07-23T05:03:31;19.10;1.00
20174;DHT22;10246;50.620;7.232;2022-07-23T05:05:59;19.10;1.00
20174;DHT22;10246;50.620;7.232;2022-07-23T05:08:26;19.10;1.00
20174;DHT22;10246;50.620;7.232;2022-07-23T05:10:53;19.10;1.00
20174;DHT22;10246;50.620;7.232;2022-07-23T05:13:20;19.30;1.00
20174;DHT22;10246;50.620;7.232;2022-07-23T05:15:47;19.30;1.00
20174;DHT22;10246;50.620;7.232;2022-07-23T05:18:14;19.20;1.00
20174;DHT22;10246;50.620;7.232;2022-07-23T05:20:41;19.10;1.00
20174;DHT22;10246;50.620;7.232;2022-07-23T05:23:09;19.10;1.10
20174;DHT22;10246;50.620;7.232;2022-07-23T05:25:36;18.90;1.60
20174;DHT22;10246;50.620;7.232;2022-07-23T05:28:03;18.90;2.10
20174;DHT22;10246;50.620;7.232;2022-07-23T05:30:30;18.90;2.30
20174;DHT22;10246;50.620;7.232;2022-07-23T05:32:56;19.10;1.00
20174;DHT22;10246;50.620;7.232;2022-07-23T05:35:23;19.20;1.00
20174;DHT22;10246;50.620;7.232;2022-07-23T05:37:50;19.10;1.00
20174;DHT22;10246;50.620;7.232;2022-07-23T05:40:19;19.10;1.00
20174;DHT22;10246;50.620;7.232;2022-07-23T05:42:46;19.00;1.00
20174;DHT22;10246;50.620;7.232;2022-07-23T05:45:12;19.10;1.00
20174;DHT22;10246;50.620;7.232;2022-07-23T05:47:41;19.00;1.00
20174;DHT22;10246;50.620;7.232;2022-07-23T05:50:08;18.90;1.00
20174;DHT22;10246;50.620;7.232;2022-07-23T05:52:35;18.90;1.10
20174;DHT22;10246;50.620;7.232;2022-07-23T05:55:02;18.90;1.60
20174;DHT22;10246;50.620;7.232;2022-07-23T05:57:30;19.00;1.40
20174;DHT22;10246;50.620;7.232;2022-07-23T05:59:57;19.10;1.10
20174;DHT22;10246;50.620;7.232;2022-07-23T06:02:23;19.30;1.00
20174;DHT22;10246;50.620;7.232;2022-07-23T06:04:50;19.30;1.00
20174;DHT22;10246;50.620;7.232;2022-07-23T06:07:17;19.20;1.00
20174;DHT22;10246;50.620;7.232;2022-07-23T06:09:43;19.20;1.00
20174;DHT22;10246;50.620;7.232;2022-07-23T06:12:12;19.20;1.10
20174;DHT22;10246;50.620;7.232;2022-07-23T06:14:40;19.10;1.80
20174;DHT22;10246;50.620;7.232;2022-07-23T06:17:07;19.10;2.20
20174;DHT22;10246;50.620;7.232;2022-07-23T06:19:34;19.00;2.70
20174;DHT22;10246;50.620;7.232;2022-07-23T06:22:01;18.90;3.30
20174;DHT22;10246;50.620;7.232;2022-07-23T06:24:28;18.90;3.60
20174;DHT22;10246;50.620;7.232;2022-07-23T06:26:54;18.90;4.00
20174;DHT22;10246;50.620;7.232;2022-07-23T06:29:21;19.00;3.70
20174;DHT22;10246;50.620;7.232;2022-07-23T06:31:49;19.00;3.90
20174;DHT22;10246;50.620;7.232;2022-07-23T06:34:16;19.10;3.90
20174;DHT22;10246;50.620;7.232;2022-07-23T06:36:43;19.30;2.90
20174;DHT22;10246;50.620;7.232;2022-07-23T06:39:10;19.30;2.20
20174;DHT22;10246;50.620;7.232;2022-07-23T06:41:36;19.20;2.60
20174;DHT22;10246;50.620;7.232;2022-07-23T06:44:04;19.10;3.20
20174;DHT22;10246;50.620;7.232;2022-07-23T06:46:30;19.10;3.50
20174;DHT22;10246;50.620;7.232;2022-07-23T06:48:59;19.30;2.60
20174;DHT22;10246;50.620;7.232;2022-07-23T06:51:26;19.40;2.40
20174;DHT22;10246;50.620;7.232;2022-07-23T06:53:53;19.50;2.00
20174;DHT22;10246;50.620;7.232;2022-07-23T06:56:19;19.70;1.50
20174;DHT22;10246;50.620;7.232;2022-07-23T06:58:46;19.80;1.10
20174;DHT22;10246;50.620;7.232;2022-07-23T07:01:13;20.00;1.00
20174;DHT22;10246;50.620;7.232;2022-07-23T07:03:40;20.20;1.00
20174;DHT22;10246;50.620;7.232;2022-07-23T07:06:08;20.30;1.00
20174;DHT22;10246;50.620;7.232;2022-07-23T07:08:35;20.50;1.00
20174;DHT22;10246;50.620;7.232;2022-07-23T07:11:01;20.50;1.00
20174;DHT22;10246;50.620;7.232;2022-07-23T07:13:28;20.60;1.00
20174;DHT22;10246;50.620;7.232;2022-07-23T07:15:55;20.80;1.00
20174;DHT22;10246;50.620;7.232;2022-07-23T07:18:22;21.10;1.00
20174;DHT22;10246;50.620;7.232;2022-07-23T07:20:48;21.10;1.00
20174;DHT22;10246;50.620;7.232;2022-07-23T07:23:16;21.20;1.00
20174;DHT22;10246;50.620;7.232;2022-07-23T07:25:43;21.10;1.00
20174;DHT22;10246;50.620;7.232;2022-07-23T07:28:10;20.90;1.00
20174;DHT22;10246;50.620;7.232;2022-07-23T07:30:37;20.80;1.00
20174;DHT22;10246;50.620;7.232;2022-07-23T07:33:03;20.80;1.00
20174;DHT22;10246;50.620;7.232;2022-07-23T07:35:30;21.00;1.00
20174;DHT22;10246;50.620;7.232;2022-07-23T07:37:57;21.20;1.00
20174;DHT22;10246;50.620;7.232;2022-07-23T07:40:26;21.20;1.00
20174;DHT22;10246;50.620;7.232;2022-07-23T07:42:54;21.30;1.00
20174;DHT22;10246;50.620;7.232;2022-07-23T07:45:23;21.20;1.00
20174;DHT22;10246;50.620;7.232;2022-07-23T07:47:50;21.40;1.00
20174;DHT22;10246;50.620;7.232;2022-07-23T07:50:16;21.50;1.00
20174;DHT22;10246;50.620;7.232;2022-07-23T07:52:43;21.50;1.00
20174;DHT22;10246;50.620;7.232;2022-07-23T07:55:11;21.50;1.00
20174;DHT22;10246;50.620;7.232;2022-07-23T07:57:40;21.50;1.00
20174;DHT22;10246;50.620;7.232;2022-07-23T08:00:08;21.40;1.00
20174;DHT22;10246;50.620;7.232;2022-07-23T08:02:43;21.40;1.00
20174;DHT22;10246;50.620;7.232;2022-07-23T08:05:10;21.70;1.00
20174;DHT22;10246;50.620;7.232;2022-07-23T08:07:37;21.80;1.00
20174;DHT22;10246;50.620;7.232;2022-07-23T08:10:05;22.00;1.00
20174;DHT22;10246;50.620;7.232;2022-07-23T08:12:43;22.30;1.00
20174;DHT22;10246;50.620;7.232;2022-07-23T08:15:11;22.20;1.00
20174;DHT22;10246;50.620;7.232;2022-07-23T08:17:38;22.40;1.00
20174;DHT22;10246;50.620;7.232;2022-07-23T08:20:07;22.40;1.00
20174;DHT22;10246;50.620;7.232;2022-07-23T08:22:44;22.40;1.00
20174;DHT22;10246;50.620;7.232;2022-07-23T08:25:11;22.30;1.00
20174;DHT22;10246;50.620;7.232;2022-07-23T08:27:38;22.20;1.00
20174;DHT22;10246;50.620;7.232;2022-07-23T08:30:08;22.30;1.00
20174;DHT22;10246;50.620;7.232;2022-07-23T08:32:48;22.60;1.00
20174;DHT22;10246;50.620;7.232;2022-07-23T08:35:15;22.90;1.00
20174;DHT22;10246;50.620;7.232;2022-07-23T08:37:42;23.10;1.00
20174;DHT22;10246;50.620;7.232;2022-07-23T08:40:10;22.90;1.00
20174;DHT22;10246;50.620;7.232;2022-07-23T08:42:38;23.00;1.00
20174;DHT22;10246;50.620;7.232;2022-07-23T08:45:08;23.00;1.00
20174;DHT22;10246;50.620;7.232;2022-07-23T08:47:36;23.10;1.00
20174;DHT22;10246;50.620;7.232;2022-07-23T08:50:04;23.40;1.00
20174;DHT22;10246;50.620;7.232;2022-07-23T08:52:31;23.30;1.00
20174;DHT22;10246;50.620;7.232;2022-07-23T08:54:58;23.00;1.00
20174;DHT22;10246;50.620;7.232;2022-07-23T08:57:25;23.00;1.00
20174;DHT22;10246;50.620;7.232;2022-07-23T08:59:52;23.20;1.00
20174;DHT22;10246;50.620;7.232;2022-07-23T09:02:20;23.20;1.00
20174;DHT22;10246;50.620;7.232;2022-07-23T09:04:47;23.40;1.00
20174;DHT22;10246;50.620;7.232;2022-07-23T09:07:13;23.30;1.00
20174;DHT22;10246;50.620;7.232;2022-07-23T09:09:40;23.40;1.00
20174;DHT22;10246;50.620;7.232;2022-07-23T09:12:09;23.50;1.00
20174;DHT22;10246;50.620;7.232;2022-07-23T09:14:38;23.50;1.00
20174;DHT22;10246;50.620;7.232;2022-07-23T09:17:09;23.40;1.00
20174;DHT22;10246;50.620;7.232;2022-07-23T09:19:38;23.60;1.00
20174;DHT22;10246;50.620;7.232;2022-07-23T09:22:18;23.80;1.00
20174;DHT22;10246;50.620;7.232;2022-07-23T09:25:04;24.00;1.00
20174;DHT22;10246;50.620;7.232;2022-07-23T09:27:46;23.80;1.00
20174;DHT22;10246;50.620;7.232;2022-07-23T09:30:13;23.40;1.00
20174;DHT22;10246;50.620;7.232;2022-07-23T09:32:40;23.40;1.00
20174;DHT22;10246;50.620;7.232;2022-07-23T09:35:09;23.10;1.00
20174;DHT22;10246;50.620;7.232;2022-07-23T09:37:36;23.20;1.00
20174;DHT22;10246;50.620;7.232;2022-07-23T09:40:06;23.50;1.00
20174;DHT22;10246;50.620;7.232;2022-07-23T09:42:34;23.50;1.00
20174;DHT22;10246;50.620;7.232;2022-07-23T09:45:01;23.80;1.00
20174;DHT22;10246;50.620;7.232;2022-07-23T09:47:30;24.20;1.00
20174;DHT22;10246;50.620;7.232;2022-07-23T09:49:59;24.10;1.00
20174;DHT22;10246;50.620;7.232;2022-07-23T09:52:28;24.10;1.00
20174;DHT22;10246;50.620;7.232;2022-07-23T09:55:00;24.10;1.00
20174;DHT22;10246;50.620;7.232;2022-07-23T09:57:27;24.20;1.00
20174;DHT22;10246;50.620;7.232;2022-07-23T09:59:58;24.00;1.00
20174;DHT22;10246;50.620;7.232;2022-07-23T10:02:28;24.00;1.00
20174;DHT22;10246;50.620;7.232;2022-07-23T10:04:55;24.10;1.00
20174;DHT22;10246;50.620;7.232;2022-07-23T10:07:22;24.40;1.00
20174;DHT22;10246;50.620;7.232;2022-07-23T10:09:54;24.50;1.00
20174;DHT22;10246;50.620;7.232;2022-07-23T10:12:21;24.10;1.00
20174;DHT22;10246;50.620;7.232;2022-07-23T10:14:57;24.40;1.00
20174;DHT22;10246;50.620;7.232;2022-07-23T10:17:25;25.00;1.00
20174;DHT22;10246;50.620;7.232;2022-07-23T10:19:53;24.80;1.00
20174;DHT22;10246;50.620;7.232;2022-07-23T10:22:23;24.90;1.00
20174;DHT22;10246;50.620;7.232;2022-07-23T10:24:59;25.00;1.00
20174;DHT22;10246;50.620;7.232;2022-07-23T10:27:50;24.90;1.00
20174;DHT22;10246;50.620;7.232;2022-07-23T10:30:26;25.00;1.00
20174;DHT22;10246;50.620;7.232;2022-07-23T10:33:09;25.30;1.00
20174;DHT22;10246;50.620;7.232;2022-07-23T10:35:42;25.40;1.00
20174;DHT22;10246;50.620;7.232;2022-07-23T10:38:13;25.60;1.00
20174;DHT22;10246;50.620;7.232;2022-07-23T10:40:53;25.40;1.00
20174;DHT22;10246;50.620;7.232;2022-07-23T10:43:21;25.40;1.00
20174;DHT22;10246;50.620;7.232;2022-07-23T10:45:48;25.50;1.00
20174;DHT22;10246;50.620;7.232;2022-07-23T10:48:17;25.80;1.00
20174;DHT22;10246;50.620;7.232;2022-07-23T10:51:06;26.00;1.00
20174;DHT22;10246;50.620;7.232;2022-07-23T10:53:55;25.80;1.00
20174;DHT22;10246;50.620;7.232;2022-07-23T10:57:04;25.70;1.00
20174;DHT22;10246;50.620;7.232;2022-07-23T10:59:44;26.00;1.00
20174;DHT22;10246;50.620;7.232;2022-07-23T11:02:33;26.40;1.00
20174;DHT22;10246;50.620;7.232;2022-07-23T11:05:01;26.70;1.00
20174;DHT22;10246;50.620;7.232;2022-07-23T11:07:29;26.60;1.00
20174;DHT22;10246;50.620;7.232;2022-07-23T11:09:56;26.20;1.00
20174;DHT22;10246;50.620;7.232;2022-07-23T11:12:37;26.20;1.00
20174;DHT22;10246;50.620;7.232;2022-07-23T11:15:06;26.20;1.00
20174;DHT22;10246;50.620;7.232;2022-07-23T11:17:34;26.40;1.00
20174;DHT22;10246;50.620;7.232;2022-07-23T11:20:17;26.40;1.00
20174;DHT22;10246;50.620;7.232;2022-07-23T11:22:49;26.30;1.00
20174;DHT22;10246;50.620;7.232;2022-07-23T11:25:31;26.10;1.00
20174;DHT22;10246;50.620;7.232;2022-07-23T11:28:16;25.80;1.00
20174;DHT22;10246;50.620;7.232;2022-07-23T11:30:46;25.80;1.00
20174;DHT22;10246;50.620;7.232;2022-07-23T11:33:19;26.00;1.00
20174;DHT22;10246;50.620;7.232;2022-07-23T11:35:49;26.50;1.00
20174;DHT22;10246;50.620;7.232;2022-07-23T11:38:17;26.90;1.00
20174;DHT22;10246;50.620;7.232;2022-07-23T11:40:48;26.50;1.00
20174;DHT22;10246;50.620;7.232;2022-07-23T11:43:17;26.60;1.00
20174;DHT22;10246;50.620;7.232;2022-07-23T11:45:45;26.80;1.00
20174;DHT22;10246;50.620;7.232;2022-07-23T11:48:18;26.90;1.00
20174;DHT22;10246;50.620;7.232;2022-07-23T11:50:45;27.20;1.00
20174;DHT22;10246;50.620;7.232;2022-07-23T11:53:12;27.20;1.00
20174;DHT22;10246;50.620;7.232;2022-07-23T11:55:39;27.20;1.00
20174;DHT22;10246;50.620;7.232;2022-07-23T11:58:06;27.10;1.00
20174;DHT22;10246;50.620;7.232;2022-07-23T12:00:34;26.90;1.00
20174;DHT22;10246;50.620;7.232;2022-07-23T12:03:02;26.90;1.00
20174;DHT22;10246;50.620;7.232;2022-07-23T12:05:33;26.40;1.00
20174;DHT22;10246;50.620;7.232;2022-07-23T12:08:02;26.20;1.00
20174;DHT22;10246;50.620;7.232;2022-07-23T12:10:33;26.40;1.00
20174;DHT22;10246;50.620;7.232;2022-07-23T12:13:02;26.80;1.00
20174;DHT22;10246;50.620;7.232;2022-07-23T12:15:32;26.70;1.00
20174;DHT22;10246;50.620;7.232;2022-07-23T12:18:01;26.80;1.00
20174;DHT22;10246;50.620;7.232;2022-07-23T12:20:30;27.20;1.00
20174;DHT22;10246;50.620;7.232;2022-07-23T12:22:59;27.30;1.00
20174;DHT22;10246;50.620;7.232;2022-07-23T12:25:28;27.00;1.00
20174;DHT22;10246;50.620;7.232;2022-07-23T12:28:03;27.10;1.00
20174;DHT22;10246;50.620;7.232;2022-07-23T12:30:32;27.40;1.00
20174;DHT22;10246;50.620;7.232;2022-07-23T12:33:01;27.40;1.00
20174;DHT22;10246;50.620;7.232;2022-07-23T12:35:34;27.30;1.00
20174;DHT22;10246;50.620;7.232;2022-07-23T12:38:03;27.70;1.00
20174;DHT22;10246;50.620;7.232;2022-07-23T12:40:32;28.00;1.00
20174;DHT22;10246;50.620;7.232;2022-07-23T12:43:02;27.80;1.00
20174;DHT22;10246;50.620;7.232;2022-07-23T12:45:43;27.40;1.00
20174;DHT22;10246;50.620;7.232;2022-07-23T12:48:20;27.70;1.00
20174;DHT22;10246;50.620;7.232;2022-07-23T12:50:52;28.10;1.00
20174;DHT22;10246;50.620;7.232;2022-07-23T12:53:22;28.10;1.00
20174;DHT22;10246;50.620;7.232;2022-07-23T12:55:51;28.00;1.00
20174;DHT22;10246;50.620;7.232;2022-07-23T12:58:23;28.10;1.00
20174;DHT22;10246;50.620;7.232;2022-07-23T13:00:56;27.80;1.00
20174;DHT22;10246;50.620;7.232;2022-07-23T13:03:27;27.60;1.00
20174;DHT22;10246;50.620;7.232;2022-07-23T13:05:54;27.80;1.00
20174;DHT22;10246;50.620;7.232;2022-07-23T13:08:22;28.10;1.00
20174;DHT22;10246;50.620;7.232;2022-07-23T13:10:50;28.20;1.00
20174;DHT22;10246;50.620;7.232;2022-07-23T13:13:18;28.10;1.00
20174;DHT22;10246;50.620;7.232;2022-07-23T13:15:46;27.70;1.00
20174;DHT22;10246;50.620;7.232;2022-07-23T13:18:12;28.10;1.00
20174;DHT22;10246;50.620;7.232;2022-07-23T13:20:41;28.10;1.00
20174;DHT22;10246;50.620;7.232;2022-07-23T13:23:08;28.10;1.00
20174;DHT22;10246;50.620;7.232;2022-07-23T13:25:35;28.10;1.00
20174;DHT22;10246;50.620;7.232;2022-07-23T13:28:02;28.30;1.00
20174;DHT22;10246;50.620;7.232;2022-07-23T13:30:30;28.80;1.00
20174;DHT22;10246;50.620;7.232;2022-07-23T13:32:56;28.80;1.00
20174;DHT22;10246;50.620;7.232;2022-07-23T13:35:23;28.80;1.00
20174;DHT22;10246;50.620;7.232;2022-07-23T13:37:51;28.60;1.00
20174;DHT22;10246;50.620;7.232;2022-07-23T13:40:18;28.40;1.00
20174;DHT22;10246;50.620;7.232;2022-07-23T13:42:45;28.50;1.00
20174;DHT22;10246;50.620;7.232;2022-07-23T13:45:12;28.20;1.00
20174;DHT22;10246;50.620;7.232;2022-07-23T13:47:39;28.00;1.00
20174;DHT22;10246;50.620;7.232;2022-07-23T13:50:06;28.20;1.00
20174;DHT22;10246;50.620;7.232;2022-07-23T13:52:33;28.80;1.00
20174;DHT22;10246;50.620;7.232;2022-07-23T13:55:02;28.90;1.00
20174;DHT22;10246;50.620;7.232;2022-07-23T13:57:30;28.70;1.00
20174;DHT22;10246;50.620;7.232;2022-07-23T13:59:56;29.00;1.00
20174;DHT22;10246;50.620;7.232;2022-07-23T14:02:24;29.40;1.00
20174;DHT22;10246;50.620;7.232;2022-07-23T14:04:51;29.80;1.00
20174;DHT22;10246;50.620;7.232;2022-07-23T14:07:18;29.70;1.00
20174;DHT22;10246;50.620;7.232;2022-07-23T14:09:45;29.60;1.00
20174;DHT22;10246;50.620;7.232;2022-07-23T14:12:13;29.30;1.00
20174;DHT22;10246;50.620;7.232;2022-07-23T14:14:40;29.10;1.00
20174;DHT22;10246;50.620;7.232;2022-07-23T14:17:08;28.60;1.00
20174;DHT22;10246;50.620;7.232;2022-07-23T14:19:35;28.60;1.00
20174;DHT22;10246;50.620;7.232;2022-07-23T14:22:02;28.40;1.00
20174;DHT22;10246;50.620;7.232;2022-07-23T14:24:29;28.30;1.00
20174;DHT22;10246;50.620;7.232;2022-07-23T14:26:55;28.00;1.00
20174;DHT22;10246;50.620;7.232;2022-07-23T14:29:23;28.20;1.00
20174;DHT22;10246;50.620;7.232;2022-07-23T14:31:50;28.50;1.00
20174;DHT22;10246;50.620;7.232;2022-07-23T14:34:17;28.70;1.00
20174;DHT22;10246;50.620;7.232;2022-07-23T14:36:44;29.10;1.00
20174;DHT22;10246;50.620;7.232;2022-07-23T14:39:11;29.10;1.00
20174;DHT22;10246;50.620;7.232;2022-07-23T14:41:38;29.00;1.00
20174;DHT22;10246;50.620;7.232;2022-07-23T14:44:05;29.20;1.00
20174;DHT22;10246;50.620;7.232;2022-07-23T14:46:34;29.40;1.00
20174;DHT22;10246;50.620;7.232;2022-07-23T14:49:01;29.50;1.00
20174;DHT22;10246;50.620;7.232;2022-07-23T14:51:28;29.20;1.00
20174;DHT22;10246;50.620;7.232;2022-07-23T14:53:55;28.80;1.00
20174;DHT22;10246;50.620;7.232;2022-07-23T14:56:22;28.80;1.00
20174;DHT22;10246;50.620;7.232;2022-07-23T14:58:48;28.90;1.00
20174;DHT22;10246;50.620;7.232;2022-07-23T15:01:15;29.10;1.00
20174;DHT22;10246;50.620;7.232;2022-07-23T15:03:44;29.30;1.00
20174;DHT22;10246;50.620;7.232;2022-07-23T15:06:10;29.40;1.00
20174;DHT22;10246;50.620;7.232;2022-07-23T15:08:37;29.40;1.00
20174;DHT22;10246;50.620;7.232;2022-07-23T15:11:04;29.00;1.00
20174;DHT22;10246;50.620;7.232;2022-07-23T15:13:31;28.90;1.00
20174;DHT22;10246;50.620;7.232;2022-07-23T15:15:57;28.70;1.00
20174;DHT22;10246;50.620;7.232;2022-07-23T15:18:24;28.70;1.00
20174;DHT22;10246;50.620;7.232;2022-07-23T15:20:53;28.80;1.00
20174;DHT22;10246;50.620;7.232;2022-07-23T15:23:19;28.60;1.00
20174;DHT22;10246;50.620;7.232;2022-07-23T15:25:46;28.60;1.00
20174;DHT22;10246;50.620;7.232;2022-07-23T15:28:13;28.80;1.00
20174;DHT22;10246;50.620;7.232;2022-07-23T15:30:40;28.80;1.00
20174;DHT22;10246;50.620;7.232;2022-07-23T15:33:07;28.60;1.00
20174;DHT22;10246;50.620;7.232;2022-07-23T15:35:34;28.60;1.00
20174;DHT22;10246;50.620;7.232;2022-07-23T15:38:02;28.60;1.00
20174;DHT22;10246;50.620;7.232;2022-07-23T15:40:29;28.80;1.00
20174;DHT22;10246;50.620;7.232;2022-07-23T15:42:56;28.70;1.00
20174;DHT22;10246;50.620;7.232;2022-07-23T15:45:23;28.50;1.00
20174;DHT22;10246;50.620;7.232;2022-07-23T15:47:50;28.70;1.00
20174;DHT22;10246;50.620;7.232;2022-07-23T15:50:17;28.50;1.00
20174;DHT22;10246;50.620;7.232;2022-07-23T15:52:43;28.70;1.00